Time;durP1;ratioP1;P1;durP2;ratioP2;P2;SDS_P1;SDS_P2;PMS_P1;PMS_P2;Temp;Humidity;BMP_temperature;BMP_pressure;BME280_temperature;BME280_humidity;BME280_pressure;Samples;Min_cycle;Max_cycle;Signal;HPM_P1;HPM_P2
2021/03/19 00:01:05;;;;;;;3.85;1.40;;;3.90;99.90;;;;;;5017641;28;20041;-66
2021/03/19 00:03:31;;;;;;;3.17;0.85;;;3.80;99.90;;;;;;5018549;28;20078;-65
2021/03/19 00:05:56;;;;;;;3.47;1.13;;;3.80;99.90;;;;;;5017901;28;20041;-66
2021/03/19 00:08:22;;;;;;;0.95;0.50;;;3.80;99.90;;;;;;5018831;28;20033;-66
2021/03/19 00:10:48;;;;;;;2.42;0.90;;;3.80;99.90;;;;;;5016448;28;20403;-65
2021/03/19 00:13:14;;;;;;;1.85;0.93;;;3.70;99.90;;;;;;5020663;28;20136;-65
2021/03/19 00:15:39;;;;;;;2.90;1.00;;;3.70;99.90;;;;;;5019114;28;20612;-66
2021/03/19 00:18:06;;;;;;;6.38;0.85;;;3.70;99.90;;;;;;5019341;28;20502;-66
2021/03/19 00:20:35;;;;;;;1.95;1.05;;;3.60;99.90;;;;;;5017057;28;20061;-67
2021/03/19 00:23:01;;;;;;;1.80;1.02;;;3.70;99.90;;;;;;5019864;28;20141;-66
2021/03/19 00:25:27;;;;;;;6.47;1.27;;;3.70;99.90;;;;;;5018311;28;20068;-66
2021/03/19 00:27:53;;;;;;;3.33;1.00;;;3.70;99.90;;;;;;5018233;28;20022;-66
2021/03/19 00:30:19;;;;;;;3.10;1.45;;;3.70;99.90;;;;;;5019149;28;20042;-64
2021/03/19 00:32:45;;;;;;;3.15;1.35;;;3.60;99.90;;;;;;5015979;28;20052;-66
2021/03/19 00:35:11;;;;;;;3.22;1.30;;;3.60;99.90;;;;;;5018348;28;20128;-66
2021/03/19 00:37:37;;;;;;;4.82;1.50;;;3.60;99.90;;;;;;5017744;28;20036;-66
2021/03/19 00:40:09;;;;;;;3.20;1.25;;;3.50;99.90;;;;;;5018262;28;20029;-65
2021/03/19 00:42:34;;;;;;;4.95;1.40;;;3.50;99.90;;;;;;5016330;28;20026;-65
2021/03/19 00:45:02;;;;;;;3.38;1.05;;;3.50;99.90;;;;;;5017972;28;20505;-66
2021/03/19 00:47:27;;;;;;;5.57;1.75;;;3.50;99.90;;;;;;5015644;28;20034;-66
2021/03/19 00:49:53;;;;;;;6.10;1.30;;;3.50;99.90;;;;;;5015802;28;20395;-65
2021/03/19 00:52:19;;;;;;;5.35;1.13;;;3.40;99.90;;;;;;5018032;28;20042;-66
2021/03/19 00:54:44;;;;;;;1.90;1.13;;;3.40;99.90;;;;;;5018123;28;20035;-66
2021/03/19 00:57:10;;;;;;;2.97;1.42;;;3.40;99.90;;;;;;5018144;28;20494;-66
2021/03/19 00:59:36;;;;;;;3.72;1.70;;;3.40;99.90;;;;;;5020169;28;20044;-65
2021/03/19 01:02:01;;;;;;;4.97;1.88;;;3.40;99.90;;;;;;5017088;28;20037;-66
2021/03/19 01:04:27;;;;;;;2.15;1.05;;;3.40;99.90;;;;;;5018265;28;20030;-66
2021/03/19 01:06:52;;;;;;;1.90;1.05;;;3.40;99.90;;;;;;5017015;28;20367;-65
2021/03/19 01:09:18;;;;;;;5.95;2.10;;;3.30;99.90;;;;;;5018485;28;20100;-66
2021/03/19 01:11:44;;;;;;;2.78;1.40;;;3.30;99.90;;;;;;5019016;28;20037;-66
2021/03/19 01:14:09;;;;;;;4.50;1.58;;;3.30;99.90;;;;;;5016569;28;20036;-65
2021/03/19 01:16:35;;;;;;;2.10;1.20;;;3.20;99.90;;;;;;5019927;28;20666;-63
2021/03/19 01:19:02;;;;;;;5.32;1.45;;;3.20;99.90;;;;;;5015682;28;20053;-66
2021/03/19 01:21:28;;;;;;;5.57;2.13;;;3.10;99.90;;;;;;5015060;28;20506;-65
2021/03/19 01:23:54;;;;;;;2.75;1.40;;;3.10;99.90;;;;;;5017398;28;20044;-69
2021/03/19 01:26:19;;;;;;;5.20;1.63;;;3.10;99.90;;;;;;5017627;28;20060;-66
2021/03/19 01:28:46;;;;;;;1.92;1.05;;;3.10;99.90;;;;;;5018087;28;20066;-66
2021/03/19 01:31:12;;;;;;;4.18;1.30;;;3.10;99.90;;;;;;5018220;28;20125;-66
2021/03/19 01:33:38;;;;;;;5.18;1.20;;;3.10;99.90;;;;;;5017274;28;20033;-66
2021/03/19 01:36:07;;;;;;;4.57;1.98;;;3.10;99.90;;;;;;5018294;28;20060;-66
2021/03/19 01:38:38;;;;;;;2.67;1.27;;;3.10;99.90;;;;;;5015684;28;20060;-66
2021/03/19 01:41:06;;;;;;;4.57;1.45;;;3.00;99.90;;;;;;5016622;28;20026;-66
2021/03/19 01:43:42;;;;;;;3.03;1.50;;;3.10;99.90;;;;;;5023028;28;20057;-66
2021/03/19 01:46:45;;;;;;;8.48;1.63;;;3.10;99.90;;;;;;5014163;28;20034;-66
2021/03/19 01:49:49;;;;;;;2.63;1.15;;;3.00;99.90;;;;;;5031369;28;20120;-64
2021/03/19 01:52:52;;;;;;;6.25;2.00;;;3.00;99.90;;;;;;5031504;28;20117;-63
2021/03/19 01:55:55;;;;;;;3.17;1.27;;;3.00;99.90;;;;;;5028630;28;20042;-66
2021/03/19 01:58:58;;;;;;;4.45;1.65;;;3.00;99.90;;;;;;5019214;28;20045;-66
2021/03/19 02:02:01;;;;;;;5.90;2.42;;;3.00;99.90;;;;;;5018213;28;20037;-66
2021/03/19 02:05:04;;;;;;;3.92;1.17;;;3.00;99.90;;;;;;5011783;28;20037;-63
2021/03/19 02:08:07;;;;;;;5.28;1.23;;;2.90;99.90;;;;;;5012228;28;20120;-66
2021/03/19 02:11:11;;;;;;;2.70;1.05;;;2.90;99.90;;;;;;5027764;28;20044;-66
2021/03/19 02:14:14;;;;;;;3.10;1.40;;;2.90;99.90;;;;;;5012246;28;20383;-66
2021/03/19 02:17:17;;;;;;;3.33;1.52;;;2.80;99.90;;;;;;5010584;28;20074;-65
2021/03/19 02:20:20;;;;;;;2.80;1.38;;;2.80;99.90;;;;;;5018444;28;20046;-65
2021/03/19 02:23:23;;;;;;;6.18;1.60;;;2.90;99.90;;;;;;5022112;28;20743;-66
2021/03/19 02:26:26;;;;;;;3.42;1.48;;;2.80;99.90;;;;;;5020936;28;20041;-66
2021/03/19 02:29:29;;;;;;;4.75;1.80;;;2.80;99.90;;;;;;5020265;28;20464;-66
2021/03/19 02:32:17;;;;;;;6.97;1.80;;;2.70;99.90;;;;;;5022208;28;20049;-66
2021/03/19 02:35:06;;;;;;;8.95;1.55;;;2.70;99.90;;;;;;5019076;28;20088;-66
2021/03/19 02:37:36;;;;;;;8.25;1.58;;;2.70;99.90;;;;;;5016514;28;20513;-66
2021/03/19 02:40:05;;;;;;;3.08;1.80;;;2.70;99.90;;;;;;5025713;28;20033;-71
2021/03/19 02:42:32;;;;;;;9.70;1.98;;;2.70;99.90;;;;;;5031431;28;20030;-65
2021/03/19 02:44:59;;;;;;;2.97;1.48;;;2.70;99.90;;;;;;5034526;28;20029;-66
2021/03/19 02:47:25;;;;;;;8.20;2.22;;;2.70;99.90;;;;;;5029429;28;20338;-67
2021/03/19 02:49:51;;;;;;;5.78;1.88;;;2.60;99.90;;;;;;5024448;28;20117;-66
2021/03/19 02:52:19;;;;;;;4.35;1.38;;;2.60;99.90;;;;;;5021650;28;20213;-65
2021/03/19 02:54:45;;;;;;;7.93;1.80;;;2.60;99.90;;;;;;5019710;28;20022;-65
2021/03/19 02:57:11;;;;;;;7.18;2.35;;;2.60;99.90;;;;;;5019169;28;20063;-66
2021/03/19 02:59:36;;;;;;;8.13;1.40;;;2.50;99.90;;;;;;5021414;28;20506;-66
2021/03/19 03:02:02;;;;;;;19.40;1.48;;;2.50;99.90;;;;;;5018911;28;20533;-65
2021/03/19 03:04:27;;;;;;;3.22;1.45;;;2.50;99.90;;;;;;5022455;28;20427;-66
2021/03/19 03:06:57;;;;;;;4.07;2.03;;;2.50;99.90;;;;;;5018377;28;20384;-65
2021/03/19 03:09:29;;;;;;;7.82;1.75;;;2.40;99.90;;;;;;5022041;28;20052;-66
2021/03/19 03:11:55;;;;;;;6.97;1.70;;;2.40;99.90;;;;;;5009134;28;20026;-65
2021/03/19 03:14:26;;;;;;;7.30;1.65;;;2.40;99.90;;;;;;5022001;28;20045;-65
2021/03/19 03:16:53;;;;;;;8.20;2.22;;;2.50;99.90;;;;;;5018415;28;20038;-65
2021/03/19 03:19:23;;;;;;;4.00;1.30;;;2.40;99.90;;;;;;5021376;28;20466;-66
2021/03/19 03:21:49;;;;;;;3.67;1.10;;;2.40;99.90;;;;;;5018291;28;20030;-65
2021/03/19 03:24:16;;;;;;;4.78;1.40;;;2.30;99.90;;;;;;5020972;28;20444;-66
2021/03/19 03:26:43;;;;;;;12.00;2.70;;;2.30;99.90;;;;;;5018511;28;20046;-66
2021/03/19 03:29:10;;;;;;;18.05;2.60;;;2.30;99.90;;;;;;5022287;28;20034;-65
2021/03/19 03:31:36;;;;;;;3.38;1.63;;;2.30;99.90;;;;;;5019641;28;20121;-66
2021/03/19 03:34:03;;;;;;;7.07;1.45;;;2.30;99.90;;;;;;5020675;28;20067;-66
2021/03/19 03:36:29;;;;;;;5.30;1.45;;;2.30;99.90;;;;;;5022762;28;20041;-66
2021/03/19 03:38:55;;;;;;;7.03;2.03;;;2.30;99.90;;;;;;5021235;28;20040;-66
2021/03/19 03:41:24;;;;;;;4.15;1.88;;;2.30;99.90;;;;;;5018270;28;20100;-65
2021/03/19 03:43:50;;;;;;;6.95;1.55;;;2.20;99.90;;;;;;5021302;28;20041;-66
2021/03/19 03:46:21;;;;;;;7.93;2.10;;;2.20;99.90;;;;;;5021015;28;20048;-65
2021/03/19 03:48:46;;;;;;;;;;;2.20;99.90;;;;;;5019371;28;20045;-66
2021/03/19 03:51:12;;;;;;;4.75;1.40;;;2.20;99.90;;;;;;5019739;28;19943;-65
2021/03/19 03:53:38;;;;;;;8.27;1.67;;;2.20;99.90;;;;;;5023862;28;20471;-65
2021/03/19 03:56:06;;;;;;;4.82;1.70;;;2.10;99.90;;;;;;5017232;28;20041;-65
2021/03/19 03:58:32;;;;;;;5.25;2.35;;;2.10;99.90;;;;;;5020431;28;20103;-66
2021/03/19 04:00:58;;;;;;;7.97;1.65;;;2.10;99.90;;;;;;5015946;28;20037;-65
2021/03/19 04:03:24;;;;;;;9.05;1.25;;;2.10;99.90;;;;;;5017832;28;20576;-65
2021/03/19 04:05:50;;;;;;;12.55;2.03;;;2.10;99.90;;;;;;5012329;28;20097;-66
2021/03/19 04:08:19;;;;;;;8.68;2.17;;;2.10;99.90;;;;;;5016141;28;20065;-65
2021/03/19 04:10:46;;;;;;;11.50;1.45;;;2.00;99.90;;;;;;5018961;28;20405;-66
2021/03/19 04:13:12;;;;;;;5.20;1.55;;;2.00;99.90;;;;;;5018334;28;20029;-66
2021/03/19 04:15:39;;;;;;;9.98;2.75;;;2.10;99.90;;;;;;5021351;28;20036;-66
2021/03/19 04:18:09;;;;;;;6.10;1.70;;;2.00;99.90;;;;;;5020984;28;20021;-65
2021/03/19 04:20:35;;;;;;;8.18;1.95;;;2.10;99.90;;;;;;5019278;28;20458;-65
2021/03/19 04:23:01;;;;;;;9.45;2.17;;;2.10;99.90;;;;;;5019744;28;20037;-65
2021/03/19 04:25:27;;;;;;;7.55;2.35;;;2.10;99.90;;;;;;5017257;28;20406;-65
2021/03/19 04:27:58;;;;;;;5.47;1.70;;;2.10;99.90;;;;;;5017295;28;20053;-65
2021/03/19 04:30:38;;;;;;;7.75;1.55;;;2.10;99.90;;;;;;5013254;28;20038;-66
2021/03/19 04:33:04;;;;;;;7.85;1.60;;;2.10;99.90;;;;;;5016431;28;20049;-65
2021/03/19 04:35:32;;;;;;;2.55;1.02;;;2.10;99.90;;;;;;5020667;28;20041;-65
2021/03/19 04:38:00;;;;;;;9.30;2.25;;;2.00;99.90;;;;;;5019832;28;20026;-66
2021/03/19 04:40:27;;;;;;;5.70;1.40;;;2.00;99.90;;;;;;5016895;28;20172;-65
2021/03/19 04:42:54;;;;;;;9.07;1.90;;;2.00;99.90;;;;;;5020130;28;20540;-65
2021/03/19 04:45:21;;;;;;;8.57;1.88;;;2.00;99.90;;;;;;5011588;28;20046;-65
2021/03/19 04:47:47;;;;;;;4.47;2.28;;;2.00;99.90;;;;;;5020477;28;20449;-65
2021/03/19 04:50:14;;;;;;;6.22;1.65;;;2.00;99.90;;;;;;5017045;28;20113;-65
2021/03/19 04:52:39;;;;;;;3.35;1.70;;;2.00;99.90;;;;;;5019203;28;20629;-65
2021/03/19 04:55:07;;;;;;;5.10;1.35;;;2.00;99.90;;;;;;5018043;28;20041;-67
2021/03/19 04:57:32;;;;;;;11.02;2.10;;;2.00;99.90;;;;;;5018083;28;20038;-65
2021/03/19 04:59:58;;;;;;;9.63;1.67;;;1.90;99.90;;;;;;5020322;28;20030;-65
2021/03/19 05:02:44;;;;;;;9.57;2.17;;;1.90;99.90;;;;;;5019840;28;20087;-66
2021/03/19 05:05:14;;;;;;;11.82;2.35;;;1.90;99.90;;;;;;5019756;28;20061;-70
2021/03/19 05:07:40;;;;;;;5.00;1.95;;;1.90;99.90;;;;;;5017855;28;20053;-65
2021/03/19 05:10:08;;;;;;;6.65;1.90;;;2.00;99.90;;;;;;5018524;28;20049;-66
2021/03/19 05:12:34;;;;;;;8.88;1.90;;;2.00;99.90;;;;;;5014150;28;20088;-65
2021/03/19 05:15:00;;;;;;;11.10;2.35;;;2.00;99.90;;;;;;5019585;28;20117;-65
2021/03/19 05:17:25;;;;;;;7.80;1.83;;;2.00;99.90;;;;;;5017335;28;20121;-65
2021/03/19 05:19:51;;;;;;;12.82;3.13;;;1.90;99.90;;;;;;5020744;28;20041;-65
2021/03/19 05:22:17;;;;;;;11.35;3.78;;;1.90;99.90;;;;;;5016977;28;20480;-66
2021/03/19 05:24:42;;;;;;;12.27;2.15;;;1.90;99.90;;;;;;5021422;28;20096;-65
2021/03/19 05:27:08;;;;;;;6.45;2.28;;;1.90;99.90;;;;;;5020133;28;20033;-66
2021/03/19 05:29:34;;;;;;;7.30;1.75;;;1.80;99.90;;;;;;5020321;28;20065;-66
2021/03/19 05:31:59;;;;;;;6.97;1.35;;;1.80;99.90;;;;;;5019746;28;20379;-66
2021/03/19 05:34:25;;;;;;;5.85;1.77;;;1.80;99.90;;;;;;5029940;28;20037;-67
2021/03/19 05:36:51;;;;;;;14.10;2.65;;;1.80;99.90;;;;;;5036406;28;20061;-66
2021/03/19 05:39:16;;;;;;;4.93;1.42;;;1.80;99.90;;;;;;5030904;28;20034;-67
2021/03/19 05:41:43;;;;;;;5.80;1.95;;;1.90;99.90;;;;;;5026155;28;20029;-67
2021/03/19 05:44:16;;;;;;;5.43;2.03;;;1.80;99.90;;;;;;5019849;28;20038;-65
2021/03/19 05:46:45;;;;;;;13.85;2.55;;;1.80;99.90;;;;;;5014654;28;20046;-65
2021/03/19 05:49:15;;;;;;;4.00;1.27;;;1.80;99.90;;;;;;5019046;28;20022;-65
2021/03/19 05:51:51;;;;;;;4.43;1.35;;;1.80;99.90;;;;;;5015844;28;20030;-65
2021/03/19 05:54:25;;;;;;;12.10;2.42;;;1.90;99.90;;;;;;5014946;28;20149;-65
2021/03/19 05:57:00;;;;;;;8.48;1.50;;;1.90;99.90;;;;;;5017006;28;20060;-66
2021/03/19 05:59:27;;;;;;;5.78;1.85;;;1.90;99.90;;;;;;5021190;28;20566;-65
2021/03/19 06:01:52;;;;;;;6.78;1.80;;;1.90;99.90;;;;;;5020220;28;20724;-66
2021/03/19 06:04:21;;;;;;;11.07;1.88;;;1.90;99.90;;;;;;5023516;28;20046;-66
2021/03/19 06:06:52;;;;;;;6.88;1.98;;;1.90;99.90;;;;;;5017890;28;20513;-65
2021/03/19 06:09:35;;;;;;;10.45;1.98;;;1.90;99.90;;;;;;5016642;28;20034;-65
2021/03/19 06:12:25;;;;;;;5.75;1.80;;;1.90;99.90;;;;;;5019880;28;20088;-65
2021/03/19 06:14:54;;;;;;;5.03;1.70;;;1.90;99.90;;;;;;5013060;28;20058;-66
2021/03/19 06:17:30;;;;;;;9.85;1.95;;;2.00;99.90;;;;;;5022849;28;20334;-66
2021/03/19 06:20:11;;;;;;;6.43;2.35;;;2.00;99.90;;;;;;5019311;28;20041;-65
2021/03/19 06:22:48;;;;;;;7.97;2.33;;;2.10;99.90;;;;;;5022424;28;20065;-65
2021/03/19 06:25:34;;;;;;;9.27;1.92;;;2.10;99.90;;;;;;5015695;28;20042;-65
2021/03/19 06:28:02;;;;;;;9.13;2.20;;;2.20;99.90;;;;;;5019956;28;20431;-65
2021/03/19 06:30:38;;;;;;;8.70;2.15;;;2.30;99.90;;;;;;5023414;28;20160;-65
2021/03/19 06:33:12;;;;;;;5.43;2.45;;;2.30;99.90;;;;;;5023087;28;20084;-65
2021/03/19 06:35:39;;;;;;;8.50;1.92;;;2.30;99.90;;;;;;5045085;28;20036;-67
2021/03/19 06:38:32;;;;;;;9.45;2.92;;;2.30;99.90;;;;;;5029812;28;20034;-66
2021/03/19 06:41:19;;;;;;;9.45;1.88;;;2.40;99.90;;;;;;5030124;28;20022;-66
2021/03/19 06:43:45;;;;;;;8.95;1.98;;;2.40;99.90;;;;;;5018116;28;20140;-66
2021/03/19 06:46:46;;;;;;;8.80;2.58;;;2.50;99.90;;;;;;5011193;28;20124;-65
2021/03/19 06:49:13;;;;;;;8.25;2.42;;;2.60;99.90;;;;;;4980647;28;20087;-65
2021/03/19 06:51:45;;;;;;;9.50;2.05;;;2.70;99.90;;;;;;5022206;28;20713;-66
2021/03/19 06:54:33;;;;;;;4.82;1.77;;;2.80;99.90;;;;;;5014630;28;20574;-65
2021/03/19 06:57:08;;;;;;;6.18;1.95;;;2.90;99.90;;;;;;5021542;28;20507;-66
2021/03/19 06:59:43;;;;;;;5.97;1.92;;;3.10;99.90;;;;;;5020109;28;20034;-66
2021/03/19 07:02:46;;;;;;;13.73;2.08;;;3.20;99.90;;;;;;5021278;28;20787;-65
2021/03/19 07:05:39;;;;;;;9.63;1.75;;;3.20;99.90;;;;;;5029247;28;20553;-65
2021/03/19 07:08:18;;;;;;;10.45;2.30;;;3.30;99.90;;;;;;5019320;28;20132;-65
2021/03/19 07:10:53;;;;;;;6.00;1.50;;;3.40;99.90;;;;;;5010168;28;20046;-65
2021/03/19 07:13:49;;;;;;;12.88;2.35;;;3.50;99.90;;;;;;5016408;28;20418;-65
2021/03/19 07:16:40;;;;;;;9.73;1.67;;;3.60;99.90;;;;;;5015330;28;20046;-66
2021/03/19 07:19:23;;;;;;;7.68;1.75;;;3.70;99.90;;;;;;5018592;28;20034;-65
2021/03/19 07:22:23;;;;;;;5.93;1.77;;;3.90;99.90;;;;;;5016312;28;20491;-65
2021/03/19 07:25:12;;;;;;;12.65;2.05;;;4.00;99.90;;;;;;5015118;28;20033;-65
2021/03/19 07:27:53;;;;;;;13.40;1.70;;;4.20;99.90;;;;;;5016482;28;20081;-66
2021/03/19 07:30:36;;;;;;;8.73;1.83;;;4.30;99.90;;;;;;5014370;28;20033;-66
2021/03/19 07:33:29;;;;;;;6.55;1.77;;;4.50;99.90;;;;;;5020335;28;20044;-65
2021/03/19 07:36:31;;;;;;;16.20;2.78;;;4.60;99.90;;;;;;5016855;28;20041;-65
2021/03/19 07:39:09;;;;;;;9.40;2.75;;;4.70;99.90;;;;;;5018309;28;20120;-65
2021/03/19 07:42:01;;;;;;;15.63;1.73;;;4.80;99.90;;;;;;5017622;28;20040;-66
2021/03/19 07:44:54;;;;;;;8.57;1.80;;;4.90;99.90;;;;;;5016838;28;20050;-66
2021/03/19 07:47:47;;;;;;;9.50;2.35;;;5.00;99.90;;;;;;5017844;28;20409;-65
2021/03/19 07:50:36;;;;;;;13.77;2.80;;;5.20;99.90;;;;;;5013750;28;20135;-65
2021/03/19 07:53:36;;;;;;;13.52;1.92;;;5.50;99.90;;;;;;5015578;28;20124;-65
2021/03/19 07:56:33;;;;;;;7.35;1.48;;;5.60;99.90;;;;;;5034813;28;20038;-65
2021/03/19 07:59:28;;;;;;;12.27;1.80;;;5.50;99.90;;;;;;5016549;28;20061;-65
2021/03/19 08:02:18;;;;;;;9.15;1.90;;;5.60;99.90;;;;;;5015885;28;20037;-65
2021/03/19 08:05:16;;;;;;;4.85;1.58;;;5.60;99.90;;;;;;5014080;28;20038;-65
2021/03/19 08:08:06;;;;;;;7.22;1.83;;;5.60;99.90;;;;;;5013995;28;20052;-66
2021/03/19 08:10:40;;;;;;;14.50;2.92;;;5.60;99.90;;;;;;5007950;28;20069;-65
2021/03/19 08:13:24;;;;;;;15.00;2.22;;;5.70;99.90;;;;;;5016285;28;20061;-65
2021/03/19 08:16:00;;;;;;;6.70;1.75;;;5.60;99.90;;;;;;5014039;28;20022;-65
2021/03/19 08:18:38;;;;;;;10.75;2.03;;;5.70;99.90;;;;;;5016976;28;20037;-66
2021/03/19 08:21:23;;;;;;;11.40;2.33;;;5.70;99.90;;;;;;5018484;28;20128;-65
2021/03/19 08:24:00;;;;;;;7.60;1.88;;;5.80;99.90;;;;;;5014638;28;20142;-66
2021/03/19 08:26:41;;;;;;;12.40;2.08;;;5.80;99.90;;;;;;5021435;28;20051;-65
2021/03/19 08:29:19;;;;;;;;;;;5.80;99.90;;;;;;5015521;28;20044;-66
2021/03/19 08:32:06;;;;;;;7.38;1.70;;;5.80;99.90;;;;;;5012866;28;19917;-65
2021/03/19 08:34:49;;;;;;;3.60;1.73;;;6.00;99.90;;;;;;5017364;28;20068;-65
2021/03/19 08:37:27;;;;;;;8.35;1.83;;;6.10;99.90;;;;;;5013415;28;20045;-66
2021/03/19 08:39:54;;;;;;;7.35;2.35;;;6.20;99.90;;;;;;5015472;28;20034;-66
2021/03/19 08:42:29;;;;;;;9.35;2.05;;;6.30;99.90;;;;;;5017104;28;20590;-66
2021/03/19 08:44:55;;;;;;;7.00;1.40;;;6.40;99.90;;;;;;5017799;28;20076;-65
2021/03/19 08:47:27;;;;;;;5.38;1.60;;;6.40;99.90;;;;;;5012950;28;20041;-65
2021/03/19 08:49:56;;;;;;;11.00;1.58;;;6.50;99.90;;;;;;5009855;28;20652;-66
2021/03/19 08:52:30;;;;;;;2.30;1.20;;;6.50;99.90;;;;;;5007126;28;20449;-65
2021/03/19 08:55:15;;;;;;;5.70;1.20;;;6.60;99.90;;;;;;5007874;28;20034;-66
2021/03/19 08:57:41;;;;;;;10.05;1.90;;;6.70;99.90;;;;;;5007909;28;20478;-65
2021/03/19 09:00:26;;;;;;;10.52;2.33;;;6.80;99.90;;;;;;5009643;28;20034;-65
2021/03/19 09:02:58;;;;;;;6.80;1.40;;;6.90;99.90;;;;;;5000496;28;20411;-66
2021/03/19 09:05:25;;;;;;;6.00;0.93;;;7.00;99.90;;;;;;5007641;28;20041;-66
2021/03/19 09:08:12;;;;;;;4.28;1.17;;;7.10;99.90;;;;;;5009594;28;20052;-65
2021/03/19 09:10:37;;;;;;;4.38;1.45;;;7.20;99.90;;;;;;5006733;28;20061;-66
2021/03/19 09:13:09;;;;;;;4.68;1.27;;;7.30;99.90;;;;;;5012375;28;20042;-66
2021/03/19 09:15:40;;;;;;;6.68;1.50;;;7.30;99.90;;;;;;5010773;28;20026;-66
2021/03/19 09:18:07;;;;;;;5.07;1.10;;;7.40;99.90;;;;;;5016287;28;20093;-66
2021/03/19 09:20:41;;;;;;;1.98;1.00;;;7.50;99.90;;;;;;5025289;28;20041;-66
2021/03/19 09:23:09;;;;;;;4.57;1.10;;;7.60;99.90;;;;;;5017424;28;20057;-66
2021/03/19 09:25:57;;;;;;;3.28;0.90;;;7.60;99.90;;;;;;5013151;28;20044;-65
2021/03/19 09:28:30;;;;;;;5.38;1.30;;;7.70;99.90;;;;;;5014454;28;20036;-66
2021/03/19 09:30:57;;;;;;;6.25;1.38;;;7.80;99.90;;;;;;5016320;28;20036;-65
2021/03/19 09:33:44;;;;;;;1.73;0.98;;;7.80;99.90;;;;;;5018890;28;20085;-65
2021/03/19 09:36:47;;;;;;;2.67;1.25;;;7.80;99.90;;;;;;5013515;28;20697;-66
2021/03/19 09:39:56;;;;;;;6.97;1.80;;;7.80;99.90;;;;;;5015677;28;20041;-66
2021/03/19 09:42:21;;;;;;;3.70;0.98;;;7.70;99.90;;;;;;5008608;28;20506;-65
2021/03/19 09:45:01;;;;;;;4.90;1.05;;;7.70;99.90;;;;;;5018180;28;20037;-66
2021/03/19 09:47:48;;;;;;;6.93;2.33;;;7.80;99.90;;;;;;5016491;28;20048;-65
2021/03/19 09:50:27;;;;;;;4.38;1.50;;;7.90;99.90;;;;;;5015092;28;20491;-66
2021/03/19 09:53:14;;;;;;;4.35;1.42;;;7.90;99.70;;;;;;5015894;28;20140;-66
2021/03/19 09:55:43;;;;;;;4.47;1.13;;;7.90;98.80;;;;;;5009380;28;20065;-68
2021/03/19 09:58:17;;;;;;;5.38;1.88;;;8.00;99.80;;;;;;5016859;28;20155;-66
2021/03/19 10:01:13;;;;;;;6.15;1.85;;;8.10;99.90;;;;;;5014609;28;20757;-66
2021/03/19 10:03:52;;;;;;;4.53;1.00;;;8.00;99.40;;;;;;5011555;28;20150;-66
2021/03/19 10:06:39;;;;;;;3.90;1.35;;;8.10;99.90;;;;;;5011190;28;20041;-66
2021/03/19 10:09:11;;;;;;;5.43;1.40;;;8.20;99.90;;;;;;5012195;28;20499;-65
2021/03/19 10:11:52;;;;;;;4.72;1.48;;;8.50;99.90;;;;;;5012069;28;20041;-66
2021/03/19 10:14:28;;;;;;;6.43;0.80;;;8.80;99.90;;;;;;5017762;28;20486;-65
2021/03/19 10:17:08;;;;;;;4.47;1.15;;;9.00;96.20;;;;;;5018042;28;20498;-67
2021/03/19 10:19:39;;;;;;;4.27;1.30;;;9.20;95.60;;;;;;5012867;28;20042;-66
2021/03/19 10:22:07;;;;;;;11.75;1.52;;;9.10;92.70;;;;;;5018387;28;20768;-66
2021/03/19 10:24:33;;;;;;;5.03;1.10;;;9.10;93.50;;;;;;5017966;28;20041;-66
2021/03/19 10:27:11;;;;;;;5.10;1.67;;;9.00;91.50;;;;;;5017737;28;20044;-66
2021/03/19 10:29:41;;;;;;;6.95;1.17;;;9.00;91.60;;;;;;5012219;28;20037;-70
2021/03/19 10:32:21;;;;;;;3.22;1.10;;;9.00;93.20;;;;;;5015930;28;20077;-66
2021/03/19 10:34:52;;;;;;;4.20;0.90;;;9.10;90.50;;;;;;5015781;28;20053;-65
2021/03/19 10:37:37;;;;;;;2.85;0.60;;;9.00;92.60;;;;;;5017108;28;20097;-66
2021/03/19 10:40:12;;;;;;;2.22;0.80;;;9.00;90.40;;;;;;5026922;28;20105;-66
2021/03/19 10:42:52;;;;;;;8.68;1.00;;;8.90;82.30;;;;;;5030720;28;20033;-66
2021/03/19 10:45:36;;;;;;;2.63;0.93;;;8.90;76.50;;;;;;5021147;28;20041;-65
2021/03/19 10:48:11;;;;;;;1.25;0.50;;;8.80;76.90;;;;;;5010153;28;20277;-65
2021/03/19 10:50:52;;;;;;;2.28;0.93;;;8.80;79.30;;;;;;5017535;28;20559;-65
2021/03/19 10:53:22;;;;;;;4.40;0.60;;;8.80;79.40;;;;;;5022506;28;20491;-64
2021/03/19 10:55:50;;;;;;;2.47;0.95;;;8.80;82.80;;;;;;5019111;28;20064;-65
2021/03/19 10:58:25;;;;;;;2.08;0.43;;;8.80;76.70;;;;;;5020643;28;20478;-64
2021/03/19 11:00:52;;;;;;;3.00;0.70;;;8.80;75.20;;;;;;5019757;28;20079;-64
2021/03/19 11:03:47;;;;;;;3.30;0.60;;;8.80;76.20;;;;;;5020369;28;20038;-64
2021/03/19 11:06:35;;;;;;;1.15;0.40;;;8.80;73.50;;;;;;5018200;28;20087;-65
2021/03/19 11:09:14;;;;;;;1.23;0.50;;;8.60;68.00;;;;;;5014265;28;20049;-64
2021/03/19 11:11:41;;;;;;;1.55;0.40;;;8.50;70.70;;;;;;5020421;28;20120;-64
2021/03/19 11:14:09;;;;;;;2.03;0.50;;;8.50;75.90;;;;;;5019757;28;20124;-64
2021/03/19 11:16:43;;;;;;;1.55;0.55;;;8.40;73.80;;;;;;5021241;28;20025;-64
2021/03/19 11:19:16;;;;;;;0.95;0.63;;;8.40;79.40;;;;;;5019266;28;20527;-64
2021/03/19 11:21:43;;;;;;;2.50;1.30;;;8.50;78.00;;;;;;5019187;28;20057;-64
2021/03/19 11:24:15;;;;;;;1.38;0.57;;;8.60;76.80;;;;;;5017903;28;20037;-64
2021/03/19 11:26:41;;;;;;;3.95;0.30;;;8.60;72.10;;;;;;5017370;28;20052;-64
2021/03/19 11:29:13;;;;;;;2.40;0.30;;;8.60;71.80;;;;;;5019500;28;20040;-64
2021/03/19 11:31:54;;;;;;;2.17;0.30;;;8.60;73.00;;;;;;5019417;28;20030;-64
2021/03/19 11:34:28;;;;;;;;;;;8.50;65.70;;;;;;5018267;28;20568;-64
2021/03/19 11:37:01;;;;;;;1.17;0.38;;;8.40;67.90;;;;;;5014253;28;19977;-64
2021/03/19 11:39:56;;;;;;;1.00;0.30;;;8.50;69.80;;;;;;5014154;28;20070;-64
2021/03/19 11:42:34;;;;;;;2.25;0.43;;;8.40;67.50;;;;;;5015478;28;20045;-64
2021/03/19 11:45:20;;;;;;;2.30;0.40;;;8.40;69.50;;;;;;5015526;28;20041;-63
2021/03/19 11:47:56;;;;;;;1.65;0.50;;;8.40;68.90;;;;;;5019628;28;20044;-64
2021/03/19 11:50:25;;;;;;;5.07;1.98;;;8.40;71.60;;;;;;5030071;28;20038;-69
2021/03/19 11:53:01;;;;;;;1.92;0.30;;;8.40;72.00;;;;;;5036057;28;20034;-65
2021/03/19 11:55:42;;;;;;;1.90;0.60;;;8.60;74.50;;;;;;5018434;28;20045;-65
2021/03/19 11:58:13;;;;;;;3.25;0.70;;;8.60;73.90;;;;;;5014310;28;20029;-64
2021/03/19 12:00:40;;;;;;;2.65;0.65;;;8.60;75.80;;;;;;5022187;28;20510;-64
2021/03/19 12:03:14;;;;;;;3.67;0.60;;;8.70;74.60;;;;;;5020363;28;20044;-64
2021/03/19 12:05:40;;;;;;;1.88;0.88;;;8.70;76.20;;;;;;5017283;28;20041;-63
2021/03/19 12:08:05;;;;;;;2.58;0.40;;;8.80;73.80;;;;;;5019081;28;20529;-64
2021/03/19 12:10:31;;;;;;;2.28;0.80;;;8.80;78.50;;;;;;5021703;28;20435;-64
2021/03/19 12:12:59;;;;;;;1.10;0.40;;;8.80;74.30;;;;;;5019558;28;20037;-64
2021/03/19 12:15:26;;;;;;;3.10;0.55;;;8.90;74.90;;;;;;5022335;28;20584;-64
2021/03/19 12:17:52;;;;;;;2.67;0.70;;;8.80;74.40;;;;;;5009651;28;20046;-64
2021/03/19 12:20:17;;;;;;;2.45;0.68;;;8.80;75.50;;;;;;5021832;28;20133;-64
2021/03/19 12:22:45;;;;;;;2.10;0.68;;;8.80;73.80;;;;;;5019605;28;20029;-64
2021/03/19 12:25:18;;;;;;;3.17;0.52;;;8.70;74.90;;;;;;5017263;28;20545;-64
2021/03/19 12:27:44;;;;;;;1.67;0.50;;;8.70;72.50;;;;;;5018021;28;20033;-64
2021/03/19 12:30:10;;;;;;;2.63;0.70;;;8.70;73.60;;;;;;5011526;28;20048;-64
2021/03/19 12:32:35;;;;;;;1.27;0.50;;;8.80;75.90;;;;;;5012439;28;20060;-64
2021/03/19 12:35:01;;;;;;;2.38;0.60;;;8.70;78.20;;;;;;5017074;28;20107;-64
2021/03/19 12:37:26;;;;;;;1.48;0.63;;;8.80;79.40;;;;;;5010842;28;20057;-64
2021/03/19 12:39:52;;;;;;;1.92;0.63;;;8.90;75.40;;;;;;5016629;28;20515;-64
2021/03/19 12:42:18;;;;;;;2.20;0.60;;;8.90;69.90;;;;;;5018430;28;20516;-64
2021/03/19 12:44:43;;;;;;;2.75;0.47;;;8.80;69.70;;;;;;5017821;28;20041;-64
2021/03/19 12:47:09;;;;;;;1.92;0.88;;;8.80;71.80;;;;;;5014413;28;20808;-64
2021/03/19 12:49:34;;;;;;;1.45;0.50;;;8.90;71.70;;;;;;5014615;28;20046;-64
2021/03/19 12:52:01;;;;;;;0.77;0.45;;;8.80;72.80;;;;;;5016187;28;20132;-64
2021/03/19 12:54:26;;;;;;;1.02;0.40;;;8.90;72.60;;;;;;5020338;28;20104;-65
2021/03/19 12:56:52;;;;;;;1.42;0.40;;;8.90;69.70;;;;;;5027264;28;20029;-65
2021/03/19 12:59:17;;;;;;;2.70;0.45;;;8.90;68.90;;;;;;5025736;28;20037;-66
2021/03/19 13:01:43;;;;;;;2.25;1.02;;;8.90;70.10;;;;;;5023628;28;20100;-66
2021/03/19 13:04:08;;;;;;;0.90;0.40;;;8.90;69.90;;;;;;5017411;28;20052;-65
2021/03/19 13:06:34;;;;;;;2.50;0.40;;;9.00;70.40;;;;;;5018554;28;20049;-65
2021/03/19 13:09:00;;;;;;;1.60;0.45;;;9.00;72.90;;;;;;5017785;28;20033;-65
2021/03/19 13:11:25;;;;;;;3.30;0.60;;;9.00;74.40;;;;;;5016831;28;20113;-65
2021/03/19 13:13:51;;;;;;;3.75;0.43;;;9.10;72.60;;;;;;5019793;28;20022;-65
2021/03/19 13:16:17;;;;;;;1.98;0.40;;;9.00;72.20;;;;;;5017682;28;20045;-66
2021/03/19 13:18:42;;;;;;;0.40;0.30;;;9.00;70.00;;;;;;5018450;28;20128;-66
2021/03/19 13:21:08;;;;;;;0.98;0.30;;;9.00;67.90;;;;;;5018021;28;20771;-65
2021/03/19 13:23:34;;;;;;;2.20;0.40;;;9.00;64.50;;;;;;5018471;28;20045;-65
2021/03/19 13:26:00;;;;;;;2.33;0.40;;;8.90;65.30;;;;;;5016958;28;20125;-64
2021/03/19 13:28:26;;;;;;;6.35;0.85;;;9.00;66.40;;;;;;5020538;28;20072;-64
2021/03/19 13:30:54;;;;;;;2.75;0.47;;;9.00;66.40;;;;;;5019785;28;20095;-65
2021/03/19 13:33:21;;;;;;;3.50;0.40;;;9.00;67.50;;;;;;5012793;28;20038;-64